Time;durP1;ratioP1;P1;durP2;ratioP2;P2;SDS_P1;SDS_P2;PMS_P1;PMS_P2;Temp;Humidity;BMP_temperature;BMP_pressure;BME280_temperature;BME280_humidity;BME280_pressure;Samples;Min_cycle;Max_cycle;Signal;HPM_P1;HPM_P2
2023/08/15 00:01:22;;;;;;;9.93;5.00;;;;;;;;;;5031121;28;20033;-84
2023/08/15 00:03:47;;;;;;;8.10;4.68;;;;;;;;;;5030057;28;20488;-85
2023/08/15 00:06:13;;;;;;;9.18;4.95;;;;;;;;;;5013029;28;20033;-84
2023/08/15 00:08:39;;;;;;;8.45;4.85;;;;;;;;;;5013366;28;20048;-84
2023/08/15 00:11:04;;;;;;;10.98;5.00;;;;;;;;;;5029601;28;20112;-83
2023/08/15 00:13:30;;;;;;;9.00;4.85;;;;;;;;;;5029685;28;20025;-84
2023/08/15 00:15:55;;;;;;;9.95;5.15;;;;;;;;;;5029596;28;20021;-84
2023/08/15 00:18:20;;;;;;;7.40;5.53;;;;;;;;;;5029876;28;20041;-84
2023/08/15 00:20:47;;;;;;;11.05;5.30;;;;;;;;;;5013296;28;20099;-84
2023/08/15 00:23:12;;;;;;;8.48;4.65;;;;;;;;;;5030841;28;20037;-84
2023/08/15 00:25:38;;;;;;;11.05;5.00;;;;;;;;;;5031356;28;20037;-84
2023/08/15 00:28:04;;;;;;;8.55;5.00;;;;;;;;;;5029865;28;20033;-84
2023/08/15 00:30:32;;;;;;;8.27;5.40;;;;;;;;;;5029911;28;20535;-84
2023/08/15 00:32:58;;;;;;;7.13;4.82;;;;;;;;;;5013736;28;20039;-84
2023/08/15 00:35:24;;;;;;;7.88;5.20;;;;;;;;;;5030912;28;20120;-84
2023/08/15 00:37:49;;;;;;;7.55;4.85;;;;;;;;;;5012766;28;20018;-84
2023/08/15 00:40:15;;;;;;;10.45;5.30;;;;;;;;;;5013317;28;20037;-84
2023/08/15 00:42:41;;;;;;;8.20;4.47;;;;;;;;;;5029699;28;20026;-84
2023/08/15 00:45:07;;;;;;;9.95;4.65;;;;;;;;;;4996632;28;20041;-83
2023/08/15 00:47:32;;;;;;;7.07;4.70;;;;;;;;;;5015994;28;20032;-84
2023/08/15 00:49:58;;;;;;;7.47;5.30;;;;;;;;;;5033340;28;20052;-85
2023/08/15 00:52:23;;;;;;;9.57;4.65;;;;;;;;;;5017446;28;20029;-83
2023/08/15 00:54:49;;;;;;;9.30;4.68;;;;;;;;;;5033275;28;20172;-85
2023/08/15 00:57:15;;;;;;;7.40;4.18;;;;;;;;;;5017066;28;20029;-86
2023/08/15 00:59:43;;;;;;;8.90;4.50;;;;;;;;;;5034846;28;20045;-84
2023/08/15 01:02:09;;;;;;;8.80;4.88;;;;;;;;;;5034454;28;20492;-85
2023/08/15 01:04:35;;;;;;;9.70;4.20;;;;;;;;;;5016790;28;20061;-83
2023/08/15 01:07:00;;;;;;;13.48;5.22;;;;;;;;;;5034545;28;20112;-84
2023/08/15 01:09:26;;;;;;;9.10;4.80;;;;;;;;;;5033117;28;20065;-85
2023/08/15 01:12:01;;;;;;;7.43;5.00;;;;;;;;;;5049376;28;20550;-85
2023/08/15 01:14:28;;;;;;;8.73;5.10;;;;;;;;;;5034255;28;20409;-84
2023/08/15 01:16:54;;;;;;;10.48;5.60;;;;;;;;;;5016899;28;20018;-84
2023/08/15 01:19:22;;;;;;;10.75;5.55;;;;;;;;;;5032656;28;20033;-84
2023/08/15 01:21:48;;;;;;;7.45;4.30;;;;;;;;;;5034249;28;20048;-84
2023/08/15 01:24:16;;;;;;;5.38;4.00;;;;;;;;;;5016459;28;20091;-84
2023/08/15 01:26:41;;;;;;;9.55;4.10;;;;;;;;;;5016162;28;20488;-85
2023/08/15 01:29:07;;;;;;;12.45;4.32;;;;;;;;;;5016447;28;20095;-85
2023/08/15 01:31:36;;;;;;;8.35;4.90;;;;;;;;;;5032545;28;20395;-85
2023/08/15 01:34:06;;;;;;;8.25;4.35;;;;;;;;;;5015975;28;20040;-84
2023/08/15 01:36:33;;;;;;;9.05;4.60;;;;;;;;;;5015784;28;20079;-84
2023/08/15 01:39:08;;;;;;;6.93;4.28;;;;;;;;;;4999754;28;20073;-84
2023/08/15 01:41:35;;;;;;;6.28;3.80;;;;;;;;;;5016224;28;20084;-84
2023/08/15 01:44:01;;;;;;;9.50;4.22;;;;;;;;;;4999716;28;20362;-85
2023/08/15 01:46:26;;;;;;;7.25;4.13;;;;;;;;;;5015769;28;20033;-84
2023/08/15 01:48:52;;;;;;;7.68;4.00;;;;;;;;;;5015463;28;20038;-84
2023/08/15 01:51:17;;;;;;;8.15;3.95;;;;;;;;;;5015490;28;20071;-84
2023/08/15 01:53:43;;;;;;;6.70;4.03;;;;;;;;;;5032110;28;20045;-84
2023/08/15 01:56:09;;;;;;;7.15;4.13;;;;;;;;;;5048831;28;20073;-84
2023/08/15 01:58:34;;;;;;;7.72;4.25;;;;;;;;;;5031100;28;20033;-84
2023/08/15 02:01:01;;;;;;;11.02;4.60;;;;;;;;;;5015441;28;20072;-83
2023/08/15 02:03:26;;;;;;;7.80;4.07;;;;;;;;;;4999241;28;20029;-84
2023/08/15 02:05:52;;;;;;;7.07;4.03;;;;;;;;;;5015308;28;20155;-85
2023/08/15 02:08:20;;;;;;;7.95;4.25;;;;;;;;;;5031515;28;20175;-85
2023/08/15 02:10:46;;;;;;;5.68;3.92;;;;;;;;;;5032903;28;20076;-85
2023/08/15 02:13:11;;;;;;;10.32;4.22;;;;;;;;;;5031898;28;20049;-85
2023/08/15 02:15:37;;;;;;;7.90;4.32;;;;;;;;;;5031800;28;20037;-84
2023/08/15 02:18:03;;;;;;;6.35;4.03;;;;;;;;;;5032065;28;20035;-85
2023/08/15 02:20:28;;;;;;;6.07;4.32;;;;;;;;;;5031577;28;20508;-85
2023/08/15 02:22:53;;;;;;;12.73;4.30;;;;;;;;;;5015079;28;20033;-85
2023/08/15 02:25:19;;;;;;;6.18;4.00;;;;;;;;;;5032047;28;20033;-85
2023/08/15 02:27:45;;;;;;;8.55;4.20;;;;;;;;;;5015530;28;20021;-84
2023/08/15 02:30:10;;;;;;;11.02;4.20;;;;;;;;;;5015161;28;20407;-84
2023/08/15 02:32:36;;;;;;;7.45;3.90;;;;;;;;;;5032347;28;20036;-84
2023/08/15 02:35:01;;;;;;;13.00;4.68;;;;;;;;;;5031241;28;20444;-85
2023/08/15 02:37:28;;;;;;;10.35;4.22;;;;;;;;;;5014962;28;20026;-85
2023/08/15 02:39:54;;;;;;;5.28;3.75;;;;;;;;;;5014677;28;20411;-85
2023/08/15 02:42:19;;;;;;;10.40;4.30;;;;;;;;;;5014713;28;20488;-85
2023/08/15 02:44:45;;;;;;;9.95;4.18;;;;;;;;;;5032461;28;20037;-85
2023/08/15 02:47:11;;;;;;;5.72;4.00;;;;;;;;;;5030831;28;20059;-85
2023/08/15 02:49:36;;;;;;;6.78;4.13;;;;;;;;;;5014455;28;20045;-84
2023/08/15 02:52:02;;;;;;;7.95;4.32;;;;;;;;;;5014307;28;20469;-84
2023/08/15 02:54:28;;;;;;;8.52;4.57;;;;;;;;;;5014600;28;20033;-85
2023/08/15 02:56:53;;;;;;;10.00;3.95;;;;;;;;;;5014489;28;20033;-84
2023/08/15 02:59:19;;;;;;;11.32;4.63;;;;;;;;;;5031911;28;20040;-84
2023/08/15 03:01:44;;;;;;;9.35;4.65;;;;;;;;;;5030603;28;20090;-84
2023/08/15 03:04:09;;;;;;;6.43;3.90;;;;;;;;;;5032459;28;20045;-83
2023/08/15 03:06:36;;;;;;;7.28;4.10;;;;;;;;;;5030555;28;20076;-84
2023/08/15 03:09:01;;;;;;;9.35;4.18;;;;;;;;;;5030625;28;20045;-86
2023/08/15 03:11:29;;;;;;;7.53;4.10;;;;;;;;;;5047439;28;20034;-84
2023/08/15 03:13:55;;;;;;;4.95;3.97;;;;;;;;;;5030551;28;20035;-84
2023/08/15 03:16:21;;;;;;;5.10;3.83;;;;;;;;;;5030647;28;20554;-84
2023/08/15 03:18:47;;;;;;;11.52;4.28;;;;;;;;;;5031746;28;20088;-84
2023/08/15 03:21:13;;;;;;;7.18;4.45;;;;;;;;;;4997616;28;20064;-84
2023/08/15 03:23:39;;;;;;;6.93;4.20;;;;;;;;;;5014000;28;20451;-85
2023/08/15 03:26:04;;;;;;;8.68;5.03;;;;;;;;;;5013834;28;20038;-85
2023/08/15 03:28:35;;;;;;;9.75;4.60;;;;;;;;;;5030240;28;20033;-85
2023/08/15 03:31:04;;;;;;;9.07;4.10;;;;;;;;;;4997654;28;20049;-85
2023/08/15 03:33:31;;;;;;;6.93;4.18;;;;;;;;;;5014139;28;20037;-85
2023/08/15 03:35:58;;;;;;;8.32;3.75;;;;;;;;;;5013816;28;20022;-85
2023/08/15 03:38:25;;;;;;;6.05;4.18;;;;;;;;;;5030138;28;20037;-85
2023/08/15 03:41:00;;;;;;;11.45;4.68;;;;;;;;;;5046645;28;20036;-85
2023/08/15 03:43:26;;;;;;;8.95;4.38;;;;;;;;;;5013848;28;20116;-85
2023/08/15 03:45:52;;;;;;;8.07;4.60;;;;;;;;;;5029882;28;20567;-85
2023/08/15 03:48:17;;;;;;;9.18;4.30;;;;;;;;;;5013750;28;20127;-85
2023/08/15 03:50:43;;;;;;;7.15;4.28;;;;;;;;;;5031188;28;20041;-84
2023/08/15 03:53:08;;;;;;;11.02;4.35;;;;;;;;;;5014005;28;20152;-84
2023/08/15 03:55:34;;;;;;;7.53;4.15;;;;;;;;;;5013572;28;20033;-85
2023/08/15 03:57:59;;;;;;;8.35;4.10;;;;;;;;;;5046828;28;20116;-85
2023/08/15 04:00:25;;;;;;;10.02;4.38;;;;;;;;;;5013473;28;20021;-84
2023/08/15 04:02:50;;;;;;;7.28;4.25;;;;;;;;;;5030208;28;20546;-85
2023/08/15 04:05:17;;;;;;;6.18;4.35;;;;;;;;;;5013218;28;20034;-84
2023/08/15 04:07:44;;;;;;;8.00;4.57;;;;;;;;;;5013849;28;20041;-85
2023/08/15 04:10:13;;;;;;;9.60;4.72;;;;;;;;;;5030727;28;20048;-84
2023/08/15 04:12:39;;;;;;;12.32;5.88;;;;;;;;;;5029723;28;20045;-85
2023/08/15 04:15:05;;;;;;;10.95;4.82;;;;;;;;;;5029916;28;20025;-85
2023/08/15 04:17:30;;;;;;;10.30;4.95;;;;;;;;;;5029769;28;20116;-85
2023/08/15 04:19:56;;;;;;;5.85;3.10;;;;;;;;;;5029746;28;20052;-85
2023/08/15 04:22:21;;;;;;;6.28;4.05;;;;;;;;;;5016336;28;20040;-85
2023/08/15 04:24:47;;;;;;;9.63;4.50;;;;;;;;;;5033572;28;20037;-85
2023/08/15 04:27:12;;;;;;;9.40;4.38;;;;;;;;;;5016851;28;20079;-84
2023/08/15 04:29:38;;;;;;;10.52;4.47;;;;;;;;;;5017053;28;20040;-84
2023/08/15 04:32:03;;;;;;;5.60;4.07;;;;;;;;;;5033352;28;20389;-86
2023/08/15 04:34:29;;;;;;;7.20;4.38;;;;;;;;;;5000720;28;20022;-85
2023/08/15 04:36:54;;;;;;;8.82;4.30;;;;;;;;;;5050211;28;20037;-85
2023/08/15 04:39:23;;;;;;;7.47;4.25;;;;;;;;;;5033264;28;20037;-84
2023/08/15 04:41:49;;;;;;;11.00;4.20;;;;;;;;;;5034694;28;20115;-84
2023/08/15 04:44:14;;;;;;;6.70;4.18;;;;;;;;;;5016984;28;20022;-84
2023/08/15 04:46:40;;;;;;;5.72;4.20;;;;;;;;;;5033159;28;20038;-84
2023/08/15 04:49:05;;;;;;;10.93;4.72;;;;;;;;;;5032941;28;20120;-84
2023/08/15 04:51:31;;;;;;;6.93;4.20;;;;;;;;;;5000364;28;20033;-85
2023/08/15 04:53:57;;;;;;;7.68;4.30;;;;;;;;;;5016330;28;20056;-85
2023/08/15 04:56:24;;;;;;;9.93;5.10;;;;;;;;;;5016645;28;20104;-85
2023/08/15 04:58:49;;;;;;;9.35;4.35;;;;;;;;;;5033130;28;20100;-85
2023/08/15 05:01:15;;;;;;;6.07;3.88;;;;;;;;;;5034390;28;20416;-84
2023/08/15 05:03:41;;;;;;;9.07;4.47;;;;;;;;;;5016855;28;20033;-84
2023/08/15 05:06:07;;;;;;;6.63;4.32;;;;;;;;;;5017026;28;20041;-84
2023/08/15 05:08:32;;;;;;;8.82;5.10;;;;;;;;;;5032973;28;20044;-83
2023/08/15 05:10:59;;;;;;;10.07;4.50;;;;;;;;;;5016428;28;20042;-85
2023/08/15 05:13:24;;;;;;;7.68;3.72;;;;;;;;;;5016223;28;20076;-85
2023/08/15 05:15:50;;;;;;;8.70;4.25;;;;;;;;;;5032978;28;20061;-85
2023/08/15 05:18:16;;;;;;;7.63;3.97;;;;;;;;;;5032790;28;20176;-85
2023/08/15 05:20:42;;;;;;;7.75;3.80;;;;;;;;;;4999958;28;20136;-85
2023/08/15 05:23:07;;;;;;;7.20;4.40;;;;;;;;;;5016384;28;20032;-85
2023/08/15 05:25:34;;;;;;;6.57;3.60;;;;;;;;;;5016600;28;20033;-85
2023/08/15 05:28:05;;;;;;;8.25;4.00;;;;;;;;;;5000104;28;20038;-85
2023/08/15 05:30:34;;;;;;;12.20;3.90;;;;;;;;;;5032635;28;20040;-85
2023/08/15 05:33:00;;;;;;;7.05;3.58;;;;;;;;;;5015193;28;20061;-85
2023/08/15 05:35:25;;;;;;;14.48;6.55;;;;;;;;;;5016002;28;20064;-85
2023/08/15 05:37:51;;;;;;;11.50;4.25;;;;;;;;;;5015787;28;20033;-85
2023/08/15 05:40:16;;;;;;;9.93;3.95;;;;;;;;;;5015748;28;20033;-85
2023/08/15 05:42:42;;;;;;;7.45;3.47;;;;;;;;;;5032432;28;20785;-85
2023/08/15 05:45:08;;;;;;;10.52;3.92;;;;;;;;;;5032006;28;20246;-85
2023/08/15 05:47:34;;;;;;;7.28;3.97;;;;;;;;;;5065315;28;20037;-86
2023/08/15 05:49:59;;;;;;;9.23;4.30;;;;;;;;;;5032327;28;20036;-86
2023/08/15 05:52:37;;;;;;;9.68;4.40;;;;;;;;;;5032182;28;20017;-85
2023/08/15 05:55:03;;;;;;;8.93;4.00;;;;;;;;;;5032064;28;20048;-85
2023/08/15 05:57:28;;;;;;;10.45;4.40;;;;;;;;;;5032135;28;20038;-85
2023/08/15 05:59:53;;;;;;;10.75;3.88;;;;;;;;;;5033278;28;20033;-84
2023/08/15 06:02:19;;;;;;;8.95;4.00;;;;;;;;;;5032455;28;20067;-85
2023/08/15 06:04:45;;;;;;;10.38;3.80;;;;;;;;;;5015614;28;20460;-84
2023/08/15 06:07:12;;;;;;;7.38;3.92;;;;;;;;;;5015021;28;20033;-84
2023/08/15 06:09:38;;;;;;;3.50;2.45;;;;;;;;;;5031843;28;20091;-84
2023/08/15 06:12:04;;;;;;;6.78;3.40;;;;;;;;;;5032713;28;20434;-85
2023/08/15 06:14:29;;;;;;;7.60;3.20;;;;;;;;;;5015011;28;20569;-85
2023/08/15 06:16:55;;;;;;;10.57;4.00;;;;;;;;;;5015064;28;20025;-85
2023/08/15 06:19:20;;;;;;;8.82;3.67;;;;;;;;;;5031627;28;20029;-85
2023/08/15 06:21:46;;;;;;;10.80;3.78;;;;;;;;;;5031474;28;20044;-85
2023/08/15 06:24:11;;;;;;;8.57;4.40;;;;;;;;;;5032792;28;20037;-85
2023/08/15 06:26:37;;;;;;;7.45;3.13;;;;;;;;;;5031426;28;20029;-84
2023/08/15 06:29:05;;;;;;;9.35;4.07;;;;;;;;;;5031643;28;20047;-84
2023/08/15 06:31:31;;;;;;;7.65;3.80;;;;;;;;;;5032354;28;20033;-84
2023/08/15 06:33:57;;;;;;;7.50;3.72;;;;;;;;;;5031484;28;20075;-84
2023/08/15 06:36:22;;;;;;;9.30;3.60;;;;;;;;;;5031158;28;20034;-84
2023/08/15 06:38:49;;;;;;;6.10;3.65;;;;;;;;;;5031324;28;20064;-84
2023/08/15 06:41:15;;;;;;;6.22;3.80;;;;;;;;;;5032413;28;20037;-84
2023/08/15 06:43:40;;;;;;;6.75;3.80;;;;;;;;;;5031912;28;20029;-84
2023/08/15 06:46:06;;;;;;;6.32;4.00;;;;;;;;;;5014639;28;20037;-84
2023/08/15 06:48:31;;;;;;;5.20;3.50;;;;;;;;;;5030995;28;20396;-83
2023/08/15 06:50:56;;;;;;;5.05;2.40;;;;;;;;;;5032239;28;20459;-84
2023/08/15 06:53:22;;;;;;;6.00;3.22;;;;;;;;;;5014572;28;20025;-84
2023/08/15 06:55:48;;;;;;;6.47;3.38;;;;;;;;;;5030819;28;20515;-84
2023/08/15 06:58:13;;;;;;;10.15;3.55;;;;;;;;;;5014312;28;20069;-84
2023/08/15 07:00:39;;;;;;;9.55;3.45;;;;;;;;;;5030722;28;20033;-84
2023/08/15 07:03:04;;;;;;;12.63;4.20;;;;;;;;;;5014547;28;20018;-84
2023/08/15 07:05:30;;;;;;;7.55;3.78;;;;;;;;;;5031875;28;20408;-84
2023/08/15 07:07:55;;;;;;;9.15;3.75;;;;;;;;;;5030508;28;20030;-84
2023/08/15 07:10:21;;;;;;;4.38;2.78;;;;;;;;;;5014432;28;20036;-84
2023/08/15 07:12:46;;;;;;;8.68;3.30;;;;;;;;;;5031962;28;20497;-84
2023/08/15 07:15:12;;;;;;;6.85;3.45;;;;;;;;;;5030554;28;20400;-84
2023/08/15 07:17:37;;;;;;;7.70;3.28;;;;;;;;;;5030819;28;20021;-84
2023/08/15 07:20:05;;;;;;;5.32;2.90;;;;;;;;;;5013613;28;20048;-84
2023/08/15 07:22:30;;;;;;;5.45;2.70;;;;;;;;;;5014254;28;20076;-83
2023/08/15 07:24:57;;;;;;;8.07;3.58;;;;;;;;;;5030208;28;20053;-84
2023/08/15 07:27:22;;;;;;;6.90;2.92;;;;;;;;;;5031926;28;20045;-84
2023/08/15 07:29:48;;;;;;;6.25;2.47;;;;;;;;;;5014034;28;20787;-83
2023/08/15 07:32:13;;;;;;;7.00;2.97;;;;;;;;;;5030260;28;20124;-84
2023/08/15 07:34:39;;;;;;;5.30;2.85;;;;;;;;;;5013799;28;20037;-84
2023/08/15 07:37:04;;;;;;;5.88;2.90;;;;;;;;;;5030493;28;20026;-84
2023/08/15 07:39:30;;;;;;;6.32;3.10;;;;;;;;;;5031334;28;20038;-84
2023/08/15 07:41:55;;;;;;;4.40;2.88;;;;;;;;;;5031402;28;20087;-83
2023/08/15 07:44:21;;;;;;;5.15;2.70;;;;;;;;;;5030148;28;20464;-84
2023/08/15 07:46:46;;;;;;;5.85;2.60;;;;;;;;;;5029840;28;20078;-84
2023/08/15 07:49:12;;;;;;;4.50;2.85;;;;;;;;;;5029761;28;20037;-84
2023/08/15 07:51:37;;;;;;;8.60;3.25;;;;;;;;;;5029944;28;20073;-84
2023/08/15 07:54:03;;;;;;;3.47;1.88;;;;;;;;;;5031390;28;20041;-84
2023/08/15 07:56:31;;;;;;;5.85;3.28;;;;;;;;;;5030542;28;20022;-83
2023/08/15 07:58:57;;;;;;;4.97;2.72;;;;;;;;;;5031102;28;20041;-85
2023/08/15 08:01:22;;;;;;;6.75;3.10;;;;;;;;;;5029846;28;20160;-85
2023/08/15 08:03:48;;;;;;;6.03;2.80;;;;;;;;;;5013796;28;20037;-85
2023/08/15 08:06:13;;;;;;;9.35;2.65;;;;;;;;;;5030236;28;20206;-85
2023/08/15 08:08:38;;;;;;;5.22;2.28;;;;;;;;;;5013894;28;20622;-84
2023/08/15 08:11:04;;;;;;;5.20;2.58;;;;;;;;;;5030870;28;20160;-85
2023/08/15 08:13:30;;;;;;;9.40;3.78;;;;;;;;;;5013759;28;20511;-85
2023/08/15 08:15:55;;;;;;;6.75;2.20;;;;;;;;;;5013667;28;20017;-85
2023/08/15 08:18:20;;;;;;;5.03;2.28;;;;;;;;;;4997133;28;20033;-85
2023/08/15 08:20:46;;;;;;;4.70;2.42;;;;;;;;;;5031160;28;20133;-85
2023/08/15 08:23:13;;;;;;;4.90;2.42;;;;;;;;;;5031096;28;20084;-84
2023/08/15 08:25:39;;;;;;;5.15;2.08;;;;;;;;;;5031512;28;20021;-84
2023/08/15 08:28:05;;;;;;;5.43;2.45;;;;;;;;;;5031225;28;20044;-84
2023/08/15 08:30:30;;;;;;;6.20;2.80;;;;;;;;;;5029876;28;20108;-85
2023/08/15 08:32:56;;;;;;;7.55;2.47;;;;;;;;;;5029419;28;20088;-85
2023/08/15 08:35:24;;;;;;;4.28;2.40;;;;;;;;;;5029697;28;20017;-85
2023/08/15 08:37:50;;;;;;;5.32;2.70;;;;;;;;;;5029743;28;20092;-85
2023/08/15 08:40:16;;;;;;;4.90;2.75;;;;;;;;;;5029517;28;20029;-85
2023/08/15 08:42:41;;;;;;;14.38;2.72;;;;;;;;;;5030758;28;20487;-84
2023/08/15 08:45:10;;;;;;;4.97;2.40;;;;;;;;;;5013354;28;20026;-84
2023/08/15 08:47:36;;;;;;;5.72;2.53;;;;;;;;;;5029558;28;20048;-85
2023/08/15 08:50:02;;;;;;;3.67;1.95;;;;;;;;;;5012954;28;20034;-84
2023/08/15 08:52:28;;;;;;;4.28;2.20;;;;;;;;;;5030300;28;20059;-84
2023/08/15 08:54:53;;;;;;;5.50;2.50;;;;;;;;;;5029538;28;20052;-84
2023/08/15 08:57:19;;;;;;;6.97;2.50;;;;;;;;;;5029530;28;20041;-84
2023/08/15 08:59:45;;;;;;;5.03;2.47;;;;;;;;;;5013288;28;20120;-84
2023/08/15 09:02:16;;;;;;;6.72;2.22;;;;;;;;;;5029134;28;20125;-84
2023/08/15 09:04:41;;;;;;;9.10;2.35;;;;;;;;;;5029277;28;20068;-85
2023/08/15 09:07:07;;;;;;;5.25;2.63;;;;;;;;;;5013674;28;20033;-84
2023/08/15 09:09:32;;;;;;;3.72;2.28;;;;;;;;;;5034347;28;20057;-84
2023/08/15 09:11:58;;;;;;;5.72;2.20;;;;;;;;;;5032679;28;20091;-85
2023/08/15 09:14:24;;;;;;;3.13;1.92;;;;;;;;;;5033918;28;20022;-84
2023/08/15 09:16:49;;;;;;;4.18;1.80;;;;;;;;;;5033990;28;20043;-84
2023/08/15 09:19:15;;;;;;;4.13;2.10;;;;;;;;;;5032541;28;20508;-84
2023/08/15 09:21:40;;;;;;;9.35;2.55;;;;;;;;;;5033881;28;20099;-84
2023/08/15 09:24:06;;;;;;;8.30;2.08;;;;;;;;;;5016112;28;20488;-84
2023/08/15 09:26:32;;;;;;;4.00;1.80;;;;;;;;;;5032478;28;20416;-85
2023/08/15 09:28:57;;;;;;;3.05;1.88;;;;;;;;;;5032427;28;20499;-85
2023/08/15 09:31:23;;;;;;;5.03;1.90;;;;;;;;;;5032033;28;20037;-85
2023/08/15 09:33:48;;;;;;;4.88;2.20;;;;;;;;;;5033484;28;20057;-84
2023/08/15 09:36:14;;;;;;;4.40;2.03;;;;;;;;;;5015781;28;20037;-82
2023/08/15 09:38:39;;;;;;;4.80;2.05;;;;;;;;;;5032044;28;20033;-84
2023/08/15 09:41:05;;;;;;;3.72;2.00;;;;;;;;;;5033575;28;20484;-84
2023/08/15 09:43:31;;;;;;;3.63;1.67;;;;;;;;;;5032309;28;20140;-84
2023/08/15 09:45:59;;;;;;;3.03;1.73;;;;;;;;;;5015756;28;20069;-85
2023/08/15 09:48:31;;;;;;;4.72;1.70;;;;;;;;;;5016190;28;20071;-84
2023/08/15 09:50:56;;;;;;;3.40;2.08;;;;;;;;;;5016076;28;20033;-85
2023/08/15 09:53:22;;;;;;;4.05;1.90;;;;;;;;;;5015722;28;20018;-85
2023/08/15 09:55:47;;;;;;;4.35;2.30;;;;;;;;;;5033278;28;20038;-84
2023/08/15 09:58:13;;;;;;;3.72;1.88;;;;;;;;;;5032264;28;20021;-85
2023/08/15 10:00:39;;;;;;;5.28;1.88;;;;;;;;;;5033706;28;20099;-85
2023/08/15 10:03:20;;;;;;;4.60;2.00;;;;;;;;;;5032095;28;20148;-85
2023/08/15 10:05:48;;;;;;;3.17;1.83;;;;;;;;;;5015249;28;20049;-85
2023/08/15 10:08:13;;;;;;;4.88;1.90;;;;;;;;;;5015082;28;20025;-83
2023/08/15 10:10:39;;;;;;;3.22;1.40;;;;;;;;;;5031638;28;20215;-84
2023/08/15 10:13:04;;;;;;;4.30;1.10;;;;;;;;;;5015232;28;20026;-83
2023/08/15 10:15:30;;;;;;;8.23;1.85;;;;;;;;;;5031442;28;20030;-84
2023/08/15 10:17:57;;;;;;;4.38;1.50;;;;;;;;;;5031589;28;20032;-84
2023/08/15 10:20:23;;;;;;;5.35;1.85;;;;;;;;;;5030416;28;20050;-84
2023/08/15 10:22:49;;;;;;;4.32;2.08;;;;;;;;;;5031292;28;20403;-84
2023/08/15 10:25:23;;;;;;;4.05;1.70;;;;;;;;;;5032448;28;20029;-84
2023/08/15 10:27:50;;;;;;;3.38;1.67;;;;;;;;;;5031228;28;20048;-84
2023/08/15 10:30:40;;;;;;;3.75;1.80;;;;;;;;;;5031536;28;20030;-84
2023/08/15 10:33:15;;;;;;;3.97;1.70;;;;;;;;;;5032465;28;20493;-84
2023/08/15 10:35:56;;;;;;;2.83;1.67;;;;;;;;;;5031289;28;20041;-85
2023/08/15 10:38:28;;;;;;;3.25;1.75;;;;;;;;;;5031101;28;20116;-84
2023/08/15 10:40:59;;;;;;;3.05;1.70;;;;;;;;;;5014976;28;20037;-85
2023/08/15 10:43:25;;;;;;;3.47;1.70;;;;;;;;;;5030961;28;20033;-85
2023/08/15 10:45:52;;;;;;;6.00;2.08;;;;;;;;;;5031104;28;20033;-84
2023/08/15 10:48:37;;;;;;;2.53;1.23;;;;;;;;;;5014432;28;20037;-85
2023/08/15 10:51:02;;;;;;;3.53;1.35;;;;;;;;;;5031305;28;20083;-84
2023/08/15 10:53:28;;;;;;;3.70;1.60;;;;;;;;;;5030785;28;20213;-85
2023/08/15 10:55:53;;;;;;;6.43;1.40;;;;;;;;;;5030654;28;20374;-84
2023/08/15 10:58:19;;;;;;;3.55;1.52;;;;;;;;;;5014019;28;20120;-85
2023/08/15 11:00:44;;;;;;;3.75;1.55;;;;;;;;;;5031809;28;20037;-85
2023/08/15 11:03:10;;;;;;;1.95;1.33;;;;;;;;;;5030571;28;20393;-84
2023/08/15 11:05:35;;;;;;;4.28;1.45;;;;;;;;;;5013946;28;20037;-84
2023/08/15 11:08:11;;;;;;;2.50;1.40;;;;;;;;;;5031610;28;20072;-84
2023/08/15 11:10:36;;;;;;;3.60;1.23;;;;;;;;;;5030571;28;20029;-84
2023/08/15 11:13:02;;;;;;;7.47;1.60;;;;;;;;;;5013813;28;20385;-84
2023/08/15 11:15:30;;;;;;;2.83;1.58;;;;;;;;;;5014010;28;20029;-84
2023/08/15 11:17:55;;;;;;;3.92;1.10;;;;;;;;;;5030373;28;20030;-85
2023/08/15 11:20:21;;;;;;;5.70;1.55;;;;;;;;;;5013473;28;20083;-84
2023/08/15 11:22:54;;;;;;;2.40;1.20;;;;;;;;;;5030434;28;20033;-85
2023/08/15 11:25:19;;;;;;;2.20;1.27;;;;;;;;;;5031541;28;20519;-85
2023/08/15 11:27:45;;;;;;;2.47;1.30;;;;;;;;;;5030189;28;20034;-85
2023/08/15 11:30:11;;;;;;;2.72;1.23;;;;;;;;;;5030086;28;20052;-85
2023/08/15 11:32:38;;;;;;;5.03;1.40;;;;;;;;;;5031320;28;20033;-85
2023/08/15 11:35:04;;;;;;;5.10;1.25;;;;;;;;;;5030262;28;20033;-84
2023/08/15 11:37:29;;;;;;;4.43;1.58;;;;;;;;;;5031212;28;20120;-85
2023/08/15 11:39:55;;;;;;;4.50;1.63;;;;;;;;;;5031363;28;20136;-85
2023/08/15 11:42:20;;;;;;;2.22;1.33;;;;;;;;;;5031349;28;20029;-83
2023/08/15 11:44:46;;;;;;;2.45;1.30;;;;;;;;;;5030169;28;20523;-84
2023/08/15 11:47:15;;;;;;;3.72;1.30;;;;;;;;;;5031303;28;20025;-84
2023/08/15 11:49:40;;;;;;;2.28;1.20;;;;;;;;;;5031141;28;20518;-84
2023/08/15 11:52:06;;;;;;;5.80;1.70;;;;;;;;;;5013649;28;20025;-84
2023/08/15 11:54:31;;;;;;;2.28;1.10;;;;;;;;;;5029891;28;20143;-83
2023/08/15 11:56:57;;;;;;;2.42;1.10;;;;;;;;;;5031199;28;20057;-83
2023/08/15 11:59:23;;;;;;;2.45;1.20;;;;;;;;;;5030990;28;20036;-84
2023/08/15 12:01:49;;;;;;;2.95;1.20;;;;;;;;;;5029652;28;20040;-85
2023/08/15 12:04:15;;;;;;;2.67;1.02;;;;;;;;;;5013301;28;20413;-85
2023/08/15 12:06:40;;;;;;;3.00;1.20;;;;;;;;;;5030315;28;20067;-85
2023/08/15 12:09:06;;;;;;;3.35;1.23;;;;;;;;;;5030020;28;20622;-85
2023/08/15 12:11:35;;;;;;;1.95;0.90;;;;;;;;;;5013849;28;20044;-84
2023/08/15 12:14:02;;;;;;;1.83;1.00;;;;;;;;;;5029963;28;20044;-84
2023/08/15 12:16:27;;;;;;;5.80;1.30;;;;;;;;;;5014105;28;20501;-85
2023/08/15 12:18:53;;;;;;;3.85;1.00;;;;;;;;;;5013453;28;20524;-85
2023/08/15 12:21:18;;;;;;;2.60;0.93;;;;;;;;;;5029852;28;20155;-85
2023/08/15 12:23:44;;;;;;;5.07;1.20;;;;;;;;;;5030863;28;20408;-84
2023/08/15 12:26:09;;;;;;;2.00;1.15;;;;;;;;;;5031064;28;20507;-84
2023/08/15 12:28:35;;;;;;;1.65;0.93;;;;;;;;;;5030875;28;20385;-84
2023/08/15 12:31:00;;;;;;;2.20;1.05;;;;;;;;;;5029775;28;20516;-84
2023/08/15 12:33:26;;;;;;;1.88;1.00;;;;;;;;;;5013120;28;20026;-84
2023/08/15 12:35:51;;;;;;;4.22;1.00;;;;;;;;;;5029898;28;20108;-84
2023/08/15 12:38:17;;;;;;;3.13;1.40;;;;;;;;;;5029257;28;20056;-84
2023/08/15 12:40:43;;;;;;;2.45;1.10;;;;;;;;;;5029635;28;20052;-84
2023/08/15 12:43:09;;;;;;;3.58;1.20;;;;;;;;;;5031713;28;20041;-84
2023/08/15 12:45:35;;;;;;;3.50;1.13;;;;;;;;;;5033248;28;20051;-85
2023/08/15 12:48:00;;;;;;;3.00;1.10;;;;;;;;;;5034285;28;20064;-84
2023/08/15 12:50:26;;;;;;;1.60;1.00;;;;;;;;;;5034543;28;20026;-85
2023/08/15 12:52:51;;;;;;;1.60;0.95;;;;;;;;;;5033689;28;20526;-86
2023/08/15 12:55:17;;;;;;;4.18;0.90;;;;;;;;;;5034429;28;20025;-83
2023/08/15 12:57:42;;;;;;;1.67;1.20;;;;;;;;;;5032929;28;20041;-85
2023/08/15 13:00:11;;;;;;;2.90;1.25;;;;;;;;;;5034685;28;20041;-85
2023/08/15 13:02:36;;;;;;;2.25;1.17;;;;;;;;;;5033111;28;20029;-84
2023/08/15 13:05:04;;;;;;;3.30;0.90;;;;;;;;;;5033982;28;20048;-84
2023/08/15 13:07:30;;;;;;;1.52;0.88;;;;;;;;;;5033008;28;20037;-85
2023/08/15 13:09:56;;;;;;;1.52;0.90;;;;;;;;;;5032539;28;20163;-85
2023/08/15 13:12:21;;;;;;;3.78;1.30;;;;;;;;;;5034330;28;20034;-85
2023/08/15 13:14:46;;;;;;;2.97;0.90;;;;;;;;;;5034017;28;20032;-85
2023/08/15 13:17:12;;;;;;;1.80;1.00;;;;;;;;;;5016600;28;20038;-85
2023/08/15 13:19:38;;;;;;;3.65;1.20;;;;;;;;;;5034083;28;20053;-84
2023/08/15 13:22:03;;;;;;;4.80;1.20;;;;;;;;;;5034146;28;20072;-85
2023/08/15 13:24:30;;;;;;;2.83;1.10;;;;;;;;;;5016494;28;20037;-85
2023/08/15 13:26:55;;;;;;;4.22;1.15;;;;;;;;;;5016248;28;20034;-84
2023/08/15 13:29:21;;;;;;;4.13;1.38;;;;;;;;;;5033750;28;20083;-84
2023/08/15 13:31:46;;;;;;;2.25;1.10;;;;;;;;;;5033719;28;20071;-84
2023/08/15 13:34:11;;;;;;;3.05;1.25;;;;;;;;;;5032939;28;20065;-84
2023/08/15 13:36:37;;;;;;;3.05;1.30;;;;;;;;;;5015901;28;20056;-85
2023/08/15 13:39:03;;;;;;;2.67;0.98;;;;;;;;;;5032239;28;20075;-84
2023/08/15 13:41:28;;;;;;;2.85;1.00;;;;;;;;;;5033476;28;20049;-84
2023/08/15 13:43:54;;;;;;;3.35;1.30;;;;;;;;;;5033372;28;20060;-84
2023/08/15 13:46:19;;;;;;;3.33;1.30;;;;;;;;;;5015556;28;20029;-84
2023/08/15 13:48:45;;;;;;;3.72;1.30;;;;;;;;;;5032192;28;20034;-85
2023/08/15 13:51:15;;;;;;;5.03;1.40;;;;;;;;;;5032128;28;20038;-85
2023/08/15 13:53:41;;;;;;;8.73;1.67;;;;;;;;;;5030714;28;20048;-85
2023/08/15 13:56:06;;;;;;;2.30;0.80;;;;;;;;;;5032036;28;20041;-85
2023/08/15 13:58:32;;;;;;;3.80;1.30;;;;;;;;;;5033175;28;20494;-84
2023/08/15 14:00:57;;;;;;;4.65;1.40;;;;;;;;;;5031844;28;20408;-84
2023/08/15 14:03:24;;;;;;;2.90;1.20;;;;;;;;;;5033593;28;20461;-84
2023/08/15 14:05:50;;;;;;;2.05;1.08;;;;;;;;;;5015430;28;20038;-85
2023/08/15 14:08:15;;;;;;;1.80;0.82;;;;;;;;;;5033204;28;20068;-85
2023/08/15 14:10:41;;;;;;;1.95;0.98;;;;;;;;;;5031850;28;20033;-85
2023/08/15 14:13:06;;;;;;;2.13;1.10;;;;;;;;;;5031891;28;20052;-85
2023/08/15 14:15:32;;;;;;;4.38;1.40;;;;;;;;;;5048748;28;20044;-85
2023/08/15 14:17:58;;;;;;;2.35;0.90;;;;;;;;;;5031625;28;20029;-85
2023/08/15 14:20:24;;;;;;;4.60;1.70;;;;;;;;;;5015329;28;20045;-84
2023/08/15 14:22:50;;;;;;;4.30;1.33;;;;;;;;;;5031997;28;20091;-84
2023/08/15 14:25:16;;;;;;;3.50;1.60;;;;;;;;;;5032417;28;20037;-84
2023/08/15 14:27:41;;;;;;;1.80;1.10;;;;;;;;;;5031661;28;20079;-84
2023/08/15 14:30:07;;;;;;;4.72;1.45;;;;;;;;;;5032681;28;20468;-84
2023/08/15 14:32:32;;;;;;;5.63;1.50;;;;;;;;;;5032475;28;20029;-85
2023/08/15 14:34:58;;;;;;;3.97;1.50;;;;;;;;;;5031518;28;20040;-85